Time;durP1;ratioP1;P1;durP2;ratioP2;P2;SDS_P1;SDS_P2;PMS_P1;PMS_P2;Temp;Humidity;BMP_temperature;BMP_pressure;BME280_temperature;BME280_humidity;BME280_pressure;Samples;Min_cycle;Max_cycle;Signal;HPM_P1;HPM_P2
2022/10/31 00:02:01;;;;;;;3.72;2.65;;;;;;;;;;5090009;28;20047;-75
2022/10/31 00:04:31;;;;;;;4.63;2.95;;;;;;;;;;5089619;28;20044;-73
2022/10/31 00:07:01;;;;;;;3.75;2.20;;;;;;;;;;5088199;28;20147;-73
2022/10/31 00:09:31;;;;;;;6.15;1.60;;;;;;;;;;5089805;28;20420;-74
2022/10/31 00:12:01;;;;;;;4.38;1.88;;;;;;;;;;5088066;28;20406;-76
2022/10/31 00:14:31;;;;;;;4.13;1.60;;;;;;;;;;5087716;28;20041;-76
2022/10/31 00:17:02;;;;;;;3.17;1.20;;;;;;;;;;5089077;28;20044;-72
2022/10/31 00:19:31;;;;;;;6.32;1.40;;;;;;;;;;5088975;28;20040;-73
2022/10/31 00:22:01;;;;;;;3.08;1.13;;;;;;;;;;5086900;28;20099;-74
2022/10/31 00:24:31;;;;;;;9.02;1.70;;;;;;;;;;5088180;28;20048;-72
2022/10/31 00:27:00;;;;;;;1.58;1.00;;;;;;;;;;5089339;28;20047;-75
2022/10/31 00:29:30;;;;;;;3.40;1.25;;;;;;;;;;5089156;28;20039;-74
2022/10/31 00:32:00;;;;;;;3.35;1.42;;;;;;;;;;5088965;28;20719;-73
2022/10/31 00:34:30;;;;;;;2.28;1.02;;;;;;;;;;5087043;28;20394;-74
2022/10/31 00:37:00;;;;;;;3.90;1.15;;;;;;;;;;5085396;28;20078;-75
2022/10/31 00:39:30;;;;;;;1.10;0.98;;;;;;;;;;5085095;28;20502;-75
2022/10/31 00:42:00;;;;;;;4.63;1.73;;;;;;;;;;5085918;28;20032;-76
2022/10/31 00:44:30;;;;;;;5.72;1.50;;;;;;;;;;5086466;28;20060;-75
2022/10/31 00:47:00;;;;;;;0.75;0.73;;;;;;;;;;5085193;28;20477;-74
2022/10/31 00:49:32;;;;;;;1.25;0.80;;;;;;;;;;5086663;28;20171;-74
2022/10/31 00:52:02;;;;;;;5.68;1.27;;;;;;;;;;5088847;28;20052;-74
2022/10/31 00:54:32;;;;;;;1.35;1.20;;;;;;;;;;5070156;28;20080;-73
2022/10/31 00:57:03;;;;;;;2.95;1.10;;;;;;;;;;5087339;28;20047;-75
2022/10/31 00:59:32;;;;;;;2.50;0.93;;;;;;;;;;5086777;28;20437;-73
2022/10/31 01:02:02;;;;;;;1.85;0.90;;;;;;;;;;5086726;28;20051;-73
2022/10/31 01:04:32;;;;;;;4.45;1.98;;;;;;;;;;5086862;28;20059;-72
2022/10/31 01:07:07;;;;;;;1.70;1.10;;;;;;;;;;5087839;28;20047;-75
2022/10/31 01:09:37;;;;;;;2.97;1.40;;;;;;;;;;5086852;28;20040;-73
2022/10/31 01:12:07;;;;;;;1.60;1.35;;;;;;;;;;5088585;28;20044;-75
2022/10/31 01:14:44;;;;;;;2.17;1.20;;;;;;;;;;5085917;28;20052;-73
2022/10/31 01:17:15;;;;;;;3.13;1.23;;;;;;;;;;5085613;28;20052;-74
2022/10/31 01:19:46;;;;;;;1.15;0.73;;;;;;;;;;5087044;28;20886;-75
2022/10/31 01:22:18;;;;;;;4.18;1.17;;;;;;;;;;5086747;28;20055;-75
2022/10/31 01:24:48;;;;;;;4.88;1.08;;;;;;;;;;5088261;28;20039;-73
2022/10/31 01:27:19;;;;;;;2.95;1.60;;;;;;;;;;5087971;28;20052;-75
2022/10/31 01:29:50;;;;;;;1.63;1.05;;;;;;;;;;5086433;28;20048;-73
2022/10/31 01:32:19;;;;;;;2.95;1.48;;;;;;;;;;5086323;28;20052;-72
2022/10/31 01:34:51;;;;;;;2.13;1.20;;;;;;;;;;5086104;28;20075;-75
2022/10/31 01:37:21;;;;;;;1.88;1.50;;;;;;;;;;5084946;28;20051;-74
2022/10/31 01:39:51;;;;;;;2.45;0.93;;;;;;;;;;5086462;28;20056;-75
2022/10/31 01:42:22;;;;;;;2.25;0.98;;;;;;;;;;5087919;28;20044;-75
2022/10/31 01:44:56;;;;;;;2.30;1.13;;;;;;;;;;5086346;28;20044;-74
2022/10/31 01:47:43;;;;;;;2.63;0.95;;;;;;;;;;5087614;28;20054;-74
2022/10/31 01:50:26;;;;;;;1.88;1.20;;;;;;;;;;5086506;28;20052;-74
2022/10/31 01:52:59;;;;;;;3.85;1.65;;;;;;;;;;5085527;28;20063;-75
2022/10/31 01:55:35;;;;;;;4.60;1.17;;;;;;;;;;5086092;28;20528;-75
2022/10/31 01:58:12;;;;;;;2.33;1.33;;;;;;;;;;5085810;28;20044;-74
2022/10/31 02:00:50;;;;;;;4.85;1.60;;;;;;;;;;5086700;28;20040;-75
2022/10/31 02:03:22;;;;;;;2.15;1.17;;;;;;;;;;5086531;28;20048;-73
2022/10/31 02:05:57;;;;;;;2.25;1.75;;;;;;;;;;5087637;28;20040;-75
2022/10/31 02:08:30;;;;;;;4.15;1.67;;;;;;;;;;5085896;28;20051;-74
2022/10/31 02:11:01;;;;;;;2.50;1.17;;;;;;;;;;5087465;28;20046;-75
2022/10/31 02:13:31;;;;;;;2.65;1.30;;;;;;;;;;5085681;28;20383;-75
2022/10/31 02:16:02;;;;;;;2.80;1.08;;;;;;;;;;5085790;28;20063;-73
2022/10/31 02:18:31;;;;;;;2.05;1.30;;;;;;;;;;5085521;28;20055;-71
2022/10/31 02:21:10;;;;;;;3.10;1.20;;;;;;;;;;5085191;28;20043;-73
2022/10/31 02:24:10;;;;;;;4.20;1.50;;;;;;;;;;5087024;28;20692;-71
2022/10/31 02:26:59;;;;;;;4.30;1.23;;;;;;;;;;5085224;28;20506;-74
2022/10/31 02:29:57;;;;;;;3.50;1.40;;;;;;;;;;5085829;28;20052;-74
2022/10/31 02:32:36;;;;;;;2.50;1.80;;;;;;;;;;5085127;28;20051;-75
2022/10/31 02:35:29;;;;;;;1.50;1.10;;;;;;;;;;5085524;28;20409;-74
2022/10/31 02:38:20;;;;;;;3.63;1.50;;;;;;;;;;5086736;28;20044;-73
2022/10/31 02:40:50;;;;;;;5.38;1.67;;;;;;;;;;5085248;28;20058;-74
2022/10/31 02:43:43;;;;;;;3.28;1.75;;;;;;;;;;5084909;28;20052;-76
2022/10/31 02:46:24;;;;;;;2.53;1.63;;;;;;;;;;5085341;28;20047;-73
2022/10/31 02:49:00;;;;;;;5.68;1.27;;;;;;;;;;5084971;28;20067;-73
2022/10/31 02:51:31;;;;;;;5.80;1.67;;;;;;;;;;5084984;28;20063;-75
2022/10/31 02:54:00;;;;;;;2.25;1.67;;;;;;;;;;5085216;28;20051;-75
2022/10/31 02:56:30;;;;;;;1.85;1.23;;;;;;;;;;5069107;28;20073;-75
2022/10/31 02:59:04;;;;;;;3.15;1.70;;;;;;;;;;5086090;28;20040;-75
2022/10/31 03:01:53;;;;;;;2.70;1.50;;;;;;;;;;5085334;28;20040;-75
2022/10/31 03:04:39;;;;;;;2.47;1.48;;;;;;;;;;5085177;28;20059;-74
2022/10/31 03:07:26;;;;;;;2.33;1.80;;;;;;;;;;5084778;28;20055;-74
2022/10/31 03:10:05;;;;;;;2.25;1.40;;;;;;;;;;5086284;28;20052;-74
2022/10/31 03:12:40;;;;;;;1.88;1.30;;;;;;;;;;5068557;28;20058;-74
2022/10/31 03:15:27;;;;;;;3.97;1.45;;;;;;;;;;5084709;28;20063;-74
2022/10/31 03:18:03;;;;;;;2.10;1.50;;;;;;;;;;5086565;28;20044;-74
2022/10/31 03:20:40;;;;;;;2.47;1.50;;;;;;;;;;5085023;28;20494;-74
2022/10/31 03:23:15;;;;;;;2.85;1.63;;;;;;;;;;5085035;28;20052;-76
2022/10/31 03:25:53;;;;;;;2.67;1.85;;;;;;;;;;5085369;28;20981;-74
2022/10/31 03:28:34;;;;;;;2.00;1.63;;;;;;;;;;5068539;28;20509;-74
2022/10/31 03:31:07;;;;;;;9.52;2.03;;;;;;;;;;5084673;28;20048;-73
2022/10/31 03:33:42;;;;;;;3.65;1.50;;;;;;;;;;5085124;28;20128;-75
2022/10/31 03:36:15;;;;;;;2.63;1.40;;;;;;;;;;5086383;28;20044;-73
2022/10/31 03:38:47;;;;;;;1.55;1.30;;;;;;;;;;5085479;28;20410;-74
2022/10/31 03:41:32;;;;;;;1.73;1.35;;;;;;;;;;5084665;28;20067;-74
2022/10/31 03:44:07;;;;;;;4.97;1.88;;;;;;;;;;5084920;28;20048;-74
2022/10/31 03:46:40;;;;;;;2.10;1.70;;;;;;;;;;5084178;28;20490;-74
2022/10/31 03:49:12;;;;;;;5.20;1.67;;;;;;;;;;5084401;28;20134;-76
2022/10/31 03:52:11;;;;;;;4.65;1.65;;;;;;;;;;5084479;28;20044;-74
2022/10/31 03:54:46;;;;;;;3.00;2.15;;;;;;;;;;5068055;28;20051;-71
2022/10/31 03:57:19;;;;;;;6.93;2.22;;;;;;;;;;5068337;28;20508;-72
2022/10/31 03:59:55;;;;;;;5.18;1.83;;;;;;;;;;5085074;28;20048;-71
2022/10/31 04:02:32;;;;;;;5.45;2.20;;;;;;;;;;5088435;28;20040;-71
2022/10/31 04:05:05;;;;;;;4.60;2.63;;;;;;;;;;5090397;28;20043;-72
2022/10/31 04:07:41;;;;;;;9.50;2.85;;;;;;;;;;5089685;28;20044;-71
2022/10/31 04:10:12;;;;;;;;;;;;;;;;;;5089859;28;20048;-74
2022/10/31 04:12:50;;;;;;;5.80;2.00;;;;;;;;;;5087760;28;19927;-70
2022/10/31 04:15:28;;;;;;;9.63;2.28;;;;;;;;;;5087921;28;20621;-71
2022/10/31 04:18:01;;;;;;;5.97;1.50;;;;;;;;;;5071272;28;20052;-71
2022/10/31 04:20:33;;;;;;;7.75;1.30;;;;;;;;;;5087863;28;20044;-74
2022/10/31 04:23:04;;;;;;;9.63;1.63;;;;;;;;;;5088978;28;20044;-73
2022/10/31 04:25:36;;;;;;;6.50;1.70;;;;;;;;;;5087986;28;20044;-71
2022/10/31 04:28:06;;;;;;;5.00;1.40;;;;;;;;;;5089841;28;20040;-73
2022/10/31 04:30:36;;;;;;;7.10;1.00;;;;;;;;;;5088205;28;20414;-73
2022/10/31 04:33:06;;;;;;;3.47;0.93;;;;;;;;;;5087573;28;20085;-72
2022/10/31 04:35:37;;;;;;;5.15;0.90;;;;;;;;;;5087107;28;20062;-74
2022/10/31 04:38:06;;;;;;;6.85;1.30;;;;;;;;;;5087401;28;20044;-74
2022/10/31 04:40:38;;;;;;;5.15;1.52;;;;;;;;;;5087564;28;20040;-74
2022/10/31 04:43:34;;;;;;;8.02;1.17;;;;;;;;;;5088997;28;20032;-72
2022/10/31 04:46:04;;;;;;;6.82;0.90;;;;;;;;;;5088885;28;20474;-74
2022/10/31 04:48:34;;;;;;;4.97;0.85;;;;;;;;;;5089227;28;20158;-72
2022/10/31 04:51:06;;;;;;;5.05;1.20;;;;;;;;;;5087602;28;20490;-75
2022/10/31 04:53:37;;;;;;;3.22;1.02;;;;;;;;;;5087098;28;20044;-74
2022/10/31 04:56:24;;;;;;;;;;;;;;;;;;5089904;28;20390;-75
2022/10/31 04:59:03;;;;;;;2.25;0.77;;;;;;;;;;5087240;28;20273;-74
2022/10/31 05:01:47;;;;;;;1.73;0.63;;;;;;;;;;5086879;28;20044;-71
2022/10/31 05:04:23;;;;;;;3.10;0.85;;;;;;;;;;5086456;28;20052;-74
2022/10/31 05:06:53;;;;;;;2.42;0.70;;;;;;;;;;5085801;28;20047;-74
2022/10/31 05:09:23;;;;;;;2.70;1.23;;;;;;;;;;5086808;28;20047;-75
2022/10/31 05:11:53;;;;;;;0.50;0.40;;;;;;;;;;5087005;28;20044;-72
2022/10/31 05:14:43;;;;;;;0.60;0.40;;;;;;;;;;5066594;28;20047;-72
2022/10/31 05:17:35;;;;;;;1.85;0.60;;;;;;;;;;5092797;28;20043;-74
2022/10/31 05:20:33;;;;;;;2.42;0.40;;;;;;;;;;5080209;28;20052;-71
2022/10/31 05:23:10;;;;;;;1.10;0.32;;;;;;;;;;5086819;28;20040;-72
2022/10/31 05:25:42;;;;;;;1.00;0.43;;;;;;;;;;5086155;28;20037;-71
2022/10/31 05:28:12;;;;;;;1.90;0.55;;;;;;;;;;5086405;28;20082;-72
2022/10/31 05:30:42;;;;;;;1.95;0.50;;;;;;;;;;5086504;28;20381;-73
2022/10/31 05:33:15;;;;;;;8.05;0.77;;;;;;;;;;5086433;28;20047;-71
2022/10/31 05:35:54;;;;;;;3.28;0.73;;;;;;;;;;5088588;28;20397;-74
2022/10/31 05:38:50;;;;;;;1.48;0.60;;;;;;;;;;5086517;28;20044;-72
2022/10/31 05:41:35;;;;;;;0.98;0.40;;;;;;;;;;5086420;28;20417;-74
2022/10/31 05:44:21;;;;;;;2.38;0.43;;;;;;;;;;5086249;28;20055;-74
2022/10/31 05:47:09;;;;;;;1.35;0.38;;;;;;;;;;5092062;28;20060;-72
2022/10/31 05:49:59;;;;;;;0.50;0.50;;;;;;;;;;5065712;28;20056;-72
2022/10/31 05:52:56;;;;;;;2.58;0.47;;;;;;;;;;5086184;28;20051;-72
2022/10/31 05:55:32;;;;;;;2.83;0.50;;;;;;;;;;5086788;28;20048;-74
2022/10/31 05:58:10;;;;;;;1.30;0.35;;;;;;;;;;5086202;28;20047;-74
2022/10/31 06:00:46;;;;;;;2.25;0.40;;;;;;;;;;5085628;28;20506;-72
2022/10/31 06:03:17;;;;;;;1.13;0.38;;;;;;;;;;5085982;28;20044;-73
2022/10/31 06:05:48;;;;;;;0.88;0.40;;;;;;;;;;5086109;28;20055;-74
2022/10/31 06:08:27;;;;;;;2.35;0.93;;;;;;;;;;5085681;28;20106;-72
2022/10/31 06:11:00;;;;;;;3.20;0.70;;;;;;;;;;5085747;28;20059;-74
2022/10/31 06:13:48;;;;;;;1.38;0.43;;;;;;;;;;5092252;28;20052;-74
2022/10/31 06:16:25;;;;;;;2.75;0.68;;;;;;;;;;5086012;28;20059;-73
2022/10/31 06:19:01;;;;;;;6.75;0.93;;;;;;;;;;5085384;28;20047;-74
2022/10/31 06:21:32;;;;;;;3.38;0.70;;;;;;;;;;5087071;28;20036;-74
2022/10/31 06:24:05;;;;;;;1.67;0.52;;;;;;;;;;5087135;28;20040;-75
2022/10/31 06:26:54;;;;;;;3.20;0.73;;;;;;;;;;5090814;28;20044;-73
2022/10/31 06:29:24;;;;;;;4.20;0.82;;;;;;;;;;5085741;28;20052;-73
2022/10/31 06:32:17;;;;;;;4.43;0.57;;;;;;;;;;5086201;28;20055;-74
2022/10/31 06:34:50;;;;;;;3.17;0.70;;;;;;;;;;5085346;28;20048;-73
2022/10/31 06:37:20;;;;;;;5.63;0.40;;;;;;;;;;5085399;28;20060;-73
2022/10/31 06:39:50;;;;;;;5.35;0.80;;;;;;;;;;5085101;28;20066;-74
2022/10/31 06:42:21;;;;;;;7.45;0.75;;;;;;;;;;5085154;28;20052;-74
2022/10/31 06:44:50;;;;;;;3.53;0.45;;;;;;;;;;5085257;28;20052;-75
2022/10/31 06:47:26;;;;;;;5.25;0.70;;;;;;;;;;5091502;28;20401;-76
2022/10/31 06:50:12;;;;;;;1.80;0.60;;;;;;;;;;5085217;28;20048;-76
2022/10/31 06:52:42;;;;;;;1.80;0.38;;;;;;;;;;5084841;28;20052;-73
2022/10/31 06:55:12;;;;;;;5.40;1.10;;;;;;;;;;5084787;28;20044;-72
2022/10/31 06:57:42;;;;;;;3.25;0.80;;;;;;;;;;5084885;28;20493;-71
2022/10/31 07:00:12;;;;;;;1.02;0.50;;;;;;;;;;5085171;28;20048;-73
2022/10/31 07:02:56;;;;;;;5.75;0.80;;;;;;;;;;5084814;28;20048;-74
2022/10/31 07:05:27;;;;;;;2.25;1.02;;;;;;;;;;5086589;28;20040;-73
2022/10/31 07:08:01;;;;;;;0.35;0.20;;;;;;;;;;5085179;28;20052;-74
2022/10/31 07:10:33;;;;;;;0.98;0.60;;;;;;;;;;5084980;28;20052;-73
2022/10/31 07:13:13;;;;;;;1.00;0.38;;;;;;;;;;5085327;28;20071;-74
2022/10/31 07:15:50;;;;;;;0.57;0.50;;;;;;;;;;5084696;28;20051;-73
2022/10/31 07:18:21;;;;;;;3.05;0.57;;;;;;;;;;5085089;28;20048;-75
2022/10/31 07:20:53;;;;;;;0.45;0.20;;;;;;;;;;5084474;28;20040;-73
2022/10/31 07:23:23;;;;;;;3.00;0.30;;;;;;;;;;5086442;28;20388;-73
2022/10/31 07:26:11;;;;;;;2.08;0.40;;;;;;;;;;5086885;28;20047;-72
2022/10/31 07:28:47;;;;;;;2.22;0.47;;;;;;;;;;5085189;28;20750;-74
2022/10/31 07:31:21;;;;;;;1.13;0.25;;;;;;;;;;5084932;28;20048;-71
2022/10/31 07:33:54;;;;;;;2.58;0.40;;;;;;;;;;5084979;28;20040;-74
2022/10/31 07:36:29;;;;;;;0.45;0.40;;;;;;;;;;5091075;28;20059;-72
2022/10/31 07:39:04;;;;;;;1.63;0.38;;;;;;;;;;5089076;28;20044;-72
2022/10/31 07:41:35;;;;;;;2.58;0.30;;;;;;;;;;5088479;28;20048;-72
2022/10/31 07:44:06;;;;;;;0.30;0.30;;;;;;;;;;5088193;28;20508;-72
2022/10/31 07:46:54;;;;;;;1.38;0.32;;;;;;;;;;5090146;28;20044;-74
2022/10/31 07:49:42;;;;;;;0.80;0.10;;;;;;;;;;5095534;28;20410;-73
2022/10/31 07:52:41;;;;;;;1.00;0.57;;;;;;;;;;5051840;28;20052;-74
2022/10/31 07:55:32;;;;;;;1.98;0.30;;;;;;;;;;5067454;28;20078;-75
2022/10/31 07:58:16;;;;;;;0.98;0.40;;;;;;;;;;5088248;28;20052;-72
2022/10/31 08:00:48;;;;;;;2.30;0.57;;;;;;;;;;5089976;28;20036;-74
2022/10/31 08:03:29;;;;;;;1.65;0.52;;;;;;;;;;5088063;28;20044;-72
2022/10/31 08:06:06;;;;;;;3.40;0.47;;;;;;;;;;5095580;28;20059;-74
2022/10/31 08:08:48;;;;;;;1.67;0.40;;;;;;;;;;5094042;28;20036;-73
2022/10/31 08:11:19;;;;;;;1.17;0.35;;;;;;;;;;5088009;28;20070;-71
2022/10/31 08:13:49;;;;;;;4.13;0.68;;;;;;;;;;5089223;28;20617;-73
2022/10/31 08:16:20;;;;;;;0.88;0.40;;;;;;;;;;5087824;28;20509;-73
2022/10/31 08:18:55;;;;;;;5.28;0.60;;;;;;;;;;5088456;28;20181;-73
2022/10/31 08:21:25;;;;;;;0.55;0.10;;;;;;;;;;5087792;28;20056;-71
2022/10/31 08:23:55;;;;;;;1.65;0.50;;;;;;;;;;5088104;28;20493;-72
2022/10/31 08:26:26;;;;;;;2.72;0.40;;;;;;;;;;5087661;28;20055;-70
2022/10/31 08:28:56;;;;;;;3.67;0.50;;;;;;;;;;5087520;28;20044;-72
2022/10/31 08:31:30;;;;;;;0.80;0.50;;;;;;;;;;5087650;28;20040;-72
2022/10/31 08:34:22;;;;;;;4.22;0.95;;;;;;;;;;5091160;28;20044;-73
2022/10/31 08:37:10;;;;;;;0.90;0.30;;;;;;;;;;5089895;28;20406;-71
2022/10/31 08:39:44;;;;;;;1.48;0.40;;;;;;;;;;5087092;28;20059;-74
2022/10/31 08:42:15;;;;;;;1.85;0.40;;;;;;;;;;5088728;28;20398;-75
2022/10/31 08:44:45;;;;;;;2.45;0.30;;;;;;;;;;5087533;28;20048;-72
2022/10/31 08:47:14;;;;;;;0.43;0.30;;;;;;;;;;5087110;28;20047;-74
2022/10/31 08:49:44;;;;;;;1.98;0.30;;;;;;;;;;5087299;28;20044;-74
2022/10/31 08:52:15;;;;;;;3.22;0.35;;;;;;;;;;5087455;28;20059;-71
2022/10/31 08:54:48;;;;;;;1.08;0.40;;;;;;;;;;5087050;28;20048;-73
2022/10/31 08:57:44;;;;;;;3.83;0.40;;;;;;;;;;5072186;28;20056;-74
2022/10/31 09:00:14;;;;;;;3.72;0.68;;;;;;;;;;5086989;28;20055;-74
2022/10/31 09:03:12;;;;;;;3.17;0.30;;;;;;;;;;5087315;28;20402;-72
2022/10/31 09:05:43;;;;;;;0.57;0.47;;;;;;;;;;5086794;28;20044;-74
2022/10/31 09:08:14;;;;;;;2.55;0.47;;;;;;;;;;5086999;28;20044;-72
2022/10/31 09:10:47;;;;;;;1.95;0.50;;;;;;;;;;5086688;28;20048;-73
2022/10/31 09:13:25;;;;;;;3.20;0.60;;;;;;;;;;5086876;28;20043;-73
2022/10/31 09:16:22;;;;;;;4.03;0.60;;;;;;;;;;5071252;28;20458;-71
2022/10/31 09:18:54;;;;;;;2.63;0.50;;;;;;;;;;5086325;28;20055;-71
2022/10/31 09:21:25;;;;;;;4.95;0.52;;;;;;;;;;5086329;28;20393;-72
2022/10/31 09:23:55;;;;;;;2.45;0.68;;;;;;;;;;5086805;28;20055;-74
2022/10/31 09:26:25;;;;;;;2.15;0.80;;;;;;;;;;5086567;28;20051;-73
2022/10/31 09:29:05;;;;;;;4.60;0.43;;;;;;;;;;5086219;28;20406;-72
2022/10/31 09:31:36;;;;;;;4.47;0.63;;;;;;;;;;5086558;28;20052;-72
2022/10/31 09:34:27;;;;;;;2.55;0.60;;;;;;;;;;5088444;28;20036;-72
2022/10/31 09:37:09;;;;;;;3.00;0.35;;;;;;;;;;5086733;28;20040;-74
2022/10/31 09:39:40;;;;;;;2.05;0.90;;;;;;;;;;5085618;28;20509;-75
2022/10/31 09:42:56;;;;;;;1.17;0.47;;;;;;;;;;5086466;28;20067;-74
2022/10/31 09:45:55;;;;;;;1.48;0.50;;;;;;;;;;5086032;28;20044;-74
2022/10/31 09:48:53;;;;;;;2.47;0.50;;;;;;;;;;5086340;28;20510;-82
2022/10/31 09:51:40;;;;;;;2.28;0.50;;;;;;;;;;5086218;28;20050;-74
2022/10/31 09:54:40;;;;;;;2.83;0.30;;;;;;;;;;5086359;28;20062;-73
2022/10/31 09:57:17;;;;;;;4.65;0.60;;;;;;;;;;5087164;28;20055;-80
2022/10/31 09:59:49;;;;;;;2.20;0.43;;;;;;;;;;5085608;28;20102;-75
2022/10/31 10:03:11;;;;;;;3.17;0.35;;;;;;;;;;5086247;28;20796;-81
2022/10/31 10:05:58;;;;;;;1.75;0.60;;;;;;;;;;5055989;28;20044;-75
2022/10/31 10:08:43;;;;;;;4.65;1.17;;;;;;;;;;5085617;28;20048;-76
2022/10/31 10:11:58;;;;;;;0.47;0.35;;;;;;;;;;5085519;28;20055;-74
2022/10/31 10:15:13;;;;;;;1.25;0.50;;;;;;;;;;5085341;28;20498;-75
2022/10/31 10:17:54;;;;;;;2.10;0.50;;;;;;;;;;5054095;28;20048;-74
2022/10/31 10:20:41;;;;;;;1.67;0.20;;;;;;;;;;5087435;28;20055;-73
2022/10/31 10:23:29;;;;;;;6.20;0.73;;;;;;;;;;5087290;28;20044;-79
2022/10/31 10:26:22;;;;;;;3.83;0.65;;;;;;;;;;5087358;28;20402;-74
2022/10/31 10:28:57;;;;;;;0.85;0.38;;;;;;;;;;5086990;28;20042;-75
2022/10/31 10:31:32;;;;;;;2.42;0.30;;;;;;;;;;5086606;28;20389;-74
2022/10/31 10:34:21;;;;;;;2.17;0.40;;;;;;;;;;5086573;28;20051;-74
2022/10/31 10:37:13;;;;;;;2.70;0.45;;;;;;;;;;5086843;28;20040;-73
2022/10/31 10:39:51;;;;;;;1.80;0.70;;;;;;;;;;5087207;28;20051;-75
2022/10/31 10:48:17;;;;;;;3.50;0.50;;;;;;;;;;5086886;28;20036;-77
2022/10/31 10:50:52;;;;;;;3.28;0.70;;;;;;;;;;5086662;28;20051;-75
2022/10/31 10:54:02;;;;;;;2.28;0.30;;;;;;;;;;5086778;28;20056;-74
2022/10/31 10:57:04;;;;;;;3.20;0.30;;;;;;;;;;5086042;28;20039;-74
2022/10/31 10:59:35;;;;;;;2.95;0.77;;;;;;;;;;5084710;28;20166;-74
2022/10/31 11:02:21;;;;;;;0.88;0.50;;;;;;;;;;5086312;28;20048;-75
2022/10/31 11:04:57;;;;;;;1.70;0.50;;;;;;;;;;5086627;28;20063;-74
2022/10/31 11:07:40;;;;;;;0.60;0.30;;;;;;;;;;5086462;28;20036;-73
2022/10/31 11:10:15;;;;;;;0.73;0.40;;;;;;;;;;5089178;28;20040;-73
2022/10/31 11:13:00;;;;;;;2.83;0.50;;;;;;;;;;5089792;28;20044;-78
2022/10/31 11:15:35;;;;;;;1.80;0.60;;;;;;;;;;5090103;28;20047;-75
2022/10/31 11:18:05;;;;;;;3.35;0.40;;;;;;;;;;5090216;28;20047;-75
2022/10/31 11:20:36;;;;;;;2.47;0.32;;;;;;;;;;5090357;28;20052;-75
2022/10/31 11:23:16;;;;;;;1.58;1.10;;;;;;;;;;5089955;28;20051;-76
2022/10/31 11:25:54;;;;;;;1.33;0.70;;;;;;;;;;5090554;28;20044;-76
2022/10/31 11:28:25;;;;;;;0.65;0.20;;;;;;;;;;5089167;28;20044;-78
2022/10/31 11:30:59;;;;;;;0.50;0.20;;;;;;;;;;5089549;28;20390;-73
2022/10/31 11:33:35;;;;;;;1.63;0.68;;;;;;;;;;5088623;28;20040;-75
2022/10/31 11:36:37;;;;;;;3.88;0.30;;;;;;;;;;5087790;28;20352;-74
2022/10/31 11:39:19;;;;;;;1.73;0.65;;;;;;;;;;5087758;28;20040;-75
2022/10/31 11:41:52;;;;;;;0.50;0.50;;;;;;;;;;5088367;28;20600;-74
2022/10/31 11:44:28;;;;;;;3.03;1.90;;;;;;;;;;5086161;28;20044;-74
2022/10/31 11:47:03;;;;;;;1.60;0.50;;;;;;;;;;5088742;28;20537;-77
2022/10/31 11:49:42;;;;;;;1.75;0.57;;;;;;;;;;5089658;28;20058;-75
2022/10/31 11:52:26;;;;;;;2.40;0.40;;;;;;;;;;5089431;28;20059;-75
2022/10/31 11:54:59;;;;;;;0.32;0.30;;;;;;;;;;5089547;28;20545;-75
2022/10/31 11:57:31;;;;;;;0.82;0.43;;;;;;;;;;5089109;28;20051;-77
2022/10/31 12:00:05;;;;;;;1.25;0.30;;;;;;;;;;5090768;28;20351;-74
2022/10/31 12:02:40;;;;;;;1.65;0.20;;;;;;;;;;5092320;28;20052;-75
2022/10/31 12:05:32;;;;;;;0.35;0.35;;;;;;;;;;5089562;28;20044;-75
2022/10/31 12:08:02;;;;;;;0.30;0.30;;;;;;;;;;5090320;28;20909;-75
2022/10/31 12:10:58;;;;;;;0.70;0.38;;;;;;;;;;5089561;28;20076;-76
2022/10/31 12:13:37;;;;;;;0.47;0.45;;;;;;;;;;5089458;28;20486;-74
2022/10/31 12:16:20;;;;;;;0.30;0.30;;;;;;;;;;5089614;28;20032;-74
2022/10/31 12:19:19;;;;;;;0.80;0.30;;;;;;;;;;5087978;28;20040;-75
2022/10/31 12:21:49;;;;;;;0.10;0.10;;;;;;;;;;5048600;28;20058;-77
2022/10/31 12:24:47;;;;;;;0.80;0.30;;;;;;;;;;5089471;28;20047;-75
2022/10/31 12:27:29;;;;;;;1.58;0.45;;;;;;;;;;5084954;28;20040;-76
2022/10/31 12:30:17;;;;;;;2.65;0.50;;;;;;;;;;5088055;28;20040;-75
2022/10/31 12:33:12;;;;;;;0.50;0.47;;;;;;;;;;5089406;28;20044;-75
2022/10/31 12:36:09;;;;;;;0.35;0.30;;;;;;;;;;5089128;28;20044;-76
2022/10/31 12:39:03;;;;;;;0.52;0.40;;;;;;;;;;5089040;28;20048;-76
2022/10/31 12:41:52;;;;;;;0.75;0.50;;;;;;;;;;5089162;28;20075;-74
2022/10/31 12:44:49;;;;;;;0.40;0.40;;;;;;;;;;5088876;28;20047;-77
2022/10/31 12:47:28;;;;;;;0.52;0.35;;;;;;;;;;5089414;28;20036;-76
2022/10/31 12:50:25;;;;;;;0.30;0.30;;;;;;;;;;5087337;28;20498;-76
2022/10/31 12:53:03;;;;;;;0.65;0.40;;;;;;;;;;5089676;28;20044;-75
2022/10/31 12:55:58;;;;;;;3.03;0.75;;;;;;;;;;5088636;28;20051;-75
2022/10/31 12:58:59;;;;;;;0.60;0.52;;;;;;;;;;5088553;28;20035;-74
2022/10/31 13:01:35;;;;;;;4.63;0.40;;;;;;;;;;5087320;28;20048;-75
2022/10/31 13:04:21;;;;;;;2.85;0.30;;;;;;;;;;5088266;28;20047;-74
2022/10/31 13:07:08;;;;;;;4.47;0.40;;;;;;;;;;5088012;28;20043;-74
2022/10/31 13:09:45;;;;;;;1.02;0.50;;;;;;;;;;5089097;28;20043;-74
2022/10/31 13:12:19;;;;;;;1.60;0.43;;;;;;;;;;5088162;28;20414;-75
2022/10/31 13:14:54;;;;;;;2.50;0.50;;;;;;;;;;5088301;28;20040;-74
2022/10/31 13:17:37;;;;;;;1.88;0.50;;;;;;;;;;5088074;28;20036;-73
2022/10/31 13:20:13;;;;;;;1.10;0.40;;;;;;;;;;5088481;28;20040;-74
2022/10/31 13:22:48;;;;;;;1.60;0.50;;;;;;;;;;5088611;28;20042;-76
2022/10/31 13:25:25;;;;;;;1.30;0.28;;;;;;;;;;5088411;28;20142;-75
2022/10/31 13:28:06;;;;;;;1.88;0.50;;;;;;;;;;5087690;28;20525;-73
2022/10/31 13:30:41;;;;;;;2.53;0.50;;;;;;;;;;5088167;28;20047;-74
2022/10/31 13:33:21;;;;;;;3.70;0.32;;;;;;;;;;5087346;28;20386;-75
2022/10/31 13:36:18;;;;;;;2.83;0.45;;;;;;;;;;5088136;28;20055;-74
2022/10/31 13:39:15;;;;;;;1.60;0.50;;;;;;;;;;5087589;28;20046;-73
2022/10/31 13:41:53;;;;;;;1.23;0.45;;;;;;;;;;5087904;28;20386;-75
2022/10/31 13:44:27;;;;;;;4.63;0.75;;;;;;;;;;5087690;28;20043;-74
2022/10/31 13:47:02;;;;;;;0.80;0.50;;;;;;;;;;5087856;28;20044;-75
2022/10/31 13:49:32;;;;;;;1.23;0.50;;;;;;;;;;5087773;28;20047;-77
2022/10/31 13:52:26;;;;;;;1.42;0.60;;;;;;;;;;5085500;28;20506;-74
2022/10/31 13:54:56;;;;;;;0.93;0.30;;;;;;;;;;5078761;28;20044;-75
2022/10/31 13:57:35;;;;;;;4.43;0.52;;;;;;;;;;5087637;28;20053;-75
2022/10/31 14:00:28;;;;;;;0.75;0.55;;;;;;;;;;5087735;28;20505;-74
2022/10/31 14:02:58;;;;;;;1.88;0.50;;;;;;;;;;5080915;28;20079;-73
2022/10/31 14:05:30;;;;;;;2.08;0.60;;;;;;;;;;5088038;28;20502;-74
2022/10/31 14:08:06;;;;;;;1.17;0.40;;;;;;;;;;5088032;28;20040;-73
2022/10/31 14:10:39;;;;;;;0.98;0.50;;;;;;;;;;5087096;28;20047;-75
2022/10/31 14:13:26;;;;;;;4.13;0.30;;;;;;;;;;5087340;28;20044;-78
2022/10/31 14:15:59;;;;;;;1.42;0.60;;;;;;;;;;5086793;28;20062;-75
2022/10/31 14:18:37;;;;;;;1.27;0.50;;;;;;;;;;5087284;28;20048;-81
2022/10/31 14:21:25;;;;;;;1.73;0.70;;;;;;;;;;5087721;28;20031;-75
2022/10/31 14:23:56;;;;;;;1.63;0.60;;;;;;;;;;5086993;28;20048;-74
2022/10/31 14:26:26;;;;;;;3.50;0.65;;;;;;;;;;5086659;28;20048;-75
2022/10/31 14:29:15;;;;;;;1.27;0.65;;;;;;;;;;5086722;28;20687;-75
2022/10/31 14:31:56;;;;;;;3.03;0.65;;;;;;;;;;5087220;28;20044;-77
2022/10/31 14:34:34;;;;;;;1.80;0.70;;;;;;;;;;5086524;28;20055;-74
2022/10/31 14:37:22;;;;;;;1.25;0.65;;;;;;;;;;5087405;28;20043;-75
2022/10/31 14:40:16;;;;;;;1.02;0.47;;;;;;;;;;5087014;28;20039;-75
2022/10/31 14:43:01;;;;;;;1.67;0.20;;;;;;;;;;5087264;28;20040;-77
2022/10/31 14:46:00;;;;;;;2.95;0.50;;;;;;;;;;5086659;28;20040;-75
2022/10/31 14:49:18;;;;;;;3.35;0.80;;;;;;;;;;5086742;28;20051;-75
2022/10/31 14:51:50;;;;;;;4.38;0.70;;;;;;;;;;5032009;28;20051;-75
2022/10/31 14:54:37;;;;;;;4.18;0.68;;;;;;;;;;5086649;28;20044;-74
2022/10/31 14:57:25;;;;;;;2.15;0.80;;;;;;;;;;5086926;28;20054;-76
2022/10/31 15:00:05;;;;;;;2.33;0.60;;;;;;;;;;5086665;28;20367;-75
2022/10/31 15:03:00;;;;;;;3.88;0.40;;;;;;;;;;5086429;28;20382;-74
2022/10/31 15:05:34;;;;;;;1.40;0.60;;;;;;;;;;5085066;28;20099;-74
2022/10/31 15:08:05;;;;;;;1.58;0.60;;;;;;;;;;5086499;28;20067;-74
2022/10/31 15:10:38;;;;;;;3.40;0.98;;;;;;;;;;5086905;28;20048;-77
2022/10/31 15:13:21;;;;;;;2.90;0.85;;;;;;;;;;5086045;28;20044;-75
2022/10/31 15:15:55;;;;;;;5.13;0.98;;;;;;;;;;5086696;28;20040;-77
2022/10/31 15:18:28;;;;;;;4.95;0.93;;;;;;;;;;5086652;28;20056;-77
2022/10/31 15:20:58;;;;;;;1.00;0.60;;;;;;;;;;5086056;28;20036;-76
2022/10/31 15:23:30;;;;;;;4.82;0.70;;;;;;;;;;5086110;28;20077;-74
2022/10/31 15:26:02;;;;;;;2.80;0.73;;;;;;;;;;5086518;28;20036;-75
2022/10/31 15:28:34;;;;;;;6.38;1.17;;;;;;;;;;5093324;28;20040;-75
2022/10/31 15:31:04;;;;;;;3.90;1.10;;;;;;;;;;5096724;28;20044;-74
2022/10/31 15:33:41;;;;;;;4.18;0.98;;;;;;;;;;5086975;28;20052;-76
2022/10/31 15:36:22;;;;;;;7.53;1.35;;;;;;;;;;5086866;28;20036;-77
2022/10/31 15:38:57;;;;;;;8.30;1.20;;;;;;;;;;5087062;28;20036;-75
2022/10/31 15:41:35;;;;;;;8.63;1.02;;;;;;;;;;5086381;28;20071;-75
2022/10/31 15:44:35;;;;;;;3.10;0.98;;;;;;;;;;5084561;28;20048;-76
2022/10/31 15:47:17;;;;;;;3.47;0.80;;;;;;;;;;5080586;28;20040;-76
2022/10/31 15:49:56;;;;;;;4.60;0.98;;;;;;;;;;5086082;28;20056;-76
2022/10/31 15:52:26;;;;;;;5.80;1.02;;;;;;;;;;5085876;28;20040;-76
2022/10/31 15:55:07;;;;;;;;;;;;;;;;;;5085262;28;20048;-75
2022/10/31 15:57:49;;;;;;;5.15;0.70;;;;;;;;;;5087985;28;19920;-75